createdAt,value
2023-03-13T00:00:24.594Z,11.57
2023-03-13T00:02:50.994Z,17.80
2023-03-13T00:05:17.426Z,14.63
2023-03-13T00:07:43.736Z,15.70
2023-03-13T00:10:10.482Z,16.88
2023-03-13T00:12:36.861Z,15.00
2023-03-13T00:15:03.557Z,15.40
2023-03-13T00:17:29.927Z,15.88
2023-03-13T00:19:56.318Z,10.02
2023-03-13T00:22:22.756Z,11.93
2023-03-13T00:24:49.144Z,18.58
2023-03-13T00:27:15.550Z,13.75
2023-03-13T00:29:42.006Z,19.08
2023-03-13T00:32:08.477Z,23.67
2023-03-13T00:34:34.893Z,13.00
2023-03-13T00:37:01.364Z,15.18
2023-03-13T00:39:27.738Z,16.05
2023-03-13T00:41:54.099Z,17.45
2023-03-13T00:44:20.438Z,10.68
2023-03-13T00:46:46.756Z,18.95
2023-03-13T00:49:13.112Z,18.80
2023-03-13T00:51:39.454Z,16.88
2023-03-13T00:54:05.823Z,17.63
2023-03-13T00:56:32.225Z,16.80
2023-03-13T00:58:59.739Z,15.00
2023-03-13T01:01:29.855Z,20.05
2023-03-13T01:03:59.591Z,17.60
2023-03-13T01:06:31.274Z,14.32
2023-03-13T01:08:58.309Z,14.25
2023-03-13T01:11:30.498Z,15.27
2023-03-13T01:13:59.751Z,18.17
2023-03-13T01:16:27.594Z,17.17
2023-03-13T01:18:57.225Z,18.15
2023-03-13T01:21:24.732Z,16.33
2023-03-13T01:23:52.407Z,18.70
2023-03-13T01:26:19.613Z,16.60
2023-03-13T01:28:46.108Z,19.48
2023-03-13T01:31:15.292Z,18.08
2023-03-13T01:33:42.061Z,16.70
2023-03-13T01:36:09.167Z,21.05
2023-03-13T01:38:36.339Z,16.20
2023-03-13T01:41:03.561Z,17.52
2023-03-13T01:43:32.183Z,13.85
2023-03-13T01:46:07.381Z,13.32
2023-03-13T01:48:39.984Z,18.60
2023-03-13T01:51:13.871Z,16.83
2023-03-13T01:53:43.996Z,13.38
2023-03-13T01:56:18.063Z,18.35
2023-03-13T01:58:45.078Z,10.45
2023-03-13T02:01:12.865Z,14.00
2023-03-13T02:03:39.294Z,14.85
2023-03-13T02:06:07.231Z,14.68
2023-03-13T02:08:39.788Z,13.20
2023-03-13T02:11:48.749Z,15.90
2023-03-13T02:14:17.208Z,10.05
2023-03-13T02:16:43.654Z,10.35
2023-03-13T02:19:24.643Z,9.38
2023-03-13T02:22:18.624Z,10.02
2023-03-13T02:25:00.182Z,7.63
2023-03-13T02:27:26.682Z,8.98
2023-03-13T02:29:53.255Z,7.93
2023-03-13T02:32:19.929Z,8.82
2023-03-13T02:34:50.507Z,12.00
2023-03-13T02:37:18.267Z,11.95
2023-03-13T02:39:50.114Z,9.55
2023-03-13T02:42:20.198Z,7.85
2023-03-13T02:44:47.656Z,9.90
2023-03-13T02:47:24.513Z,5.60
2023-03-13T02:49:51.412Z,8.55
2023-03-13T02:52:25.886Z,9.55
2023-03-13T02:54:57.468Z,7.35
2023-03-13T02:57:23.780Z,8.77
2023-03-13T02:59:50.245Z,9.70
2023-03-13T03:02:16.625Z,11.05
2023-03-13T03:04:42.995Z,10.38
2023-03-13T03:07:09.319Z,9.25
2023-03-13T03:09:35.657Z,9.85
2023-03-13T03:12:02.020Z,9.95
2023-03-13T03:14:28.394Z,11.15
2023-03-13T03:16:54.735Z,7.47
2023-03-13T03:19:21.167Z,10.18
2023-03-13T03:21:47.599Z,9.07
2023-03-13T03:24:13.930Z,7.22
2023-03-13T03:26:40.258Z,11.55
2023-03-13T03:29:06.719Z,9.82
2023-03-13T03:31:33.259Z,9.82
2023-03-13T03:34:00.097Z,9.60
2023-03-13T03:36:26.698Z,7.40
2023-03-13T03:38:53.045Z,8.65
2023-03-13T03:41:19.693Z,9.60
2023-03-13T03:43:46.828Z,8.18
2023-03-13T03:46:14.695Z,12.07
2023-03-13T03:48:41.620Z,8.70
2023-03-13T03:51:07.964Z,8.90
2023-03-13T03:53:34.410Z,7.57
2023-03-13T03:56:01.402Z,10.65
2023-03-13T03:58:27.855Z,9.35
2023-03-13T04:00:57.366Z,8.48
2023-03-13T04:03:24.623Z,9.57
2023-03-13T04:05:51.071Z,9.32
2023-03-13T04:08:17.418Z,9.68
2023-03-13T04:10:43.795Z,11.13
2023-03-13T04:13:10.202Z,11.98
2023-03-13T04:15:39.101Z,9.70
2023-03-13T04:18:05.642Z,11.63
2023-03-13T04:20:32.176Z,9.82
2023-03-13T04:22:58.584Z,12.93
2023-03-13T04:25:25.012Z,12.70
2023-03-13T04:27:51.539Z,11.95
2023-03-13T04:30:18.786Z,10.95
2023-03-13T04:32:45.329Z,15.52
2023-03-13T04:35:11.870Z,11.48
2023-03-13T04:37:38.350Z,11.30
2023-03-13T04:40:05.309Z,13.45
2023-03-13T04:42:31.657Z,13.90
2023-03-13T04:44:58.017Z,13.18
2023-03-13T04:47:24.352Z,13.68
2023-03-13T04:49:50.676Z,13.43
2023-03-13T04:52:17.028Z,12.93
2023-03-13T04:54:43.361Z,12.65
2023-03-13T04:57:09.716Z,13.65
2023-03-13T04:59:36.080Z,14.02
2023-03-13T05:02:02.471Z,13.68
2023-03-13T05:04:28.822Z,13.20
2023-03-13T05:06:55.106Z,11.68
2023-03-13T05:09:21.440Z,11.60
2023-03-13T05:11:47.766Z,14.75
2023-03-13T05:14:14.094Z,12.73
2023-03-13T05:16:40.439Z,13.13
2023-03-13T05:19:06.787Z,12.75
2023-03-13T05:21:33.136Z,10.93
2023-03-13T05:23:59.500Z,11.45
2023-03-13T05:26:25.897Z,14.13
2023-03-13T05:28:52.262Z,13.65
2023-03-13T05:31:18.713Z,13.88
2023-03-13T05:33:45.112Z,12.00
2023-03-13T05:36:11.555Z,13.55
2023-03-13T05:38:38.032Z,13.48
2023-03-13T05:41:04.763Z,11.50
2023-03-13T05:43:31.112Z,12.43
2023-03-13T05:45:57.616Z,11.93
2023-03-13T05:48:23.992Z,13.48
2023-03-13T05:50:50.338Z,14.02
2023-03-13T05:53:16.726Z,13.48
2023-03-13T05:55:43.776Z,11.73
2023-03-13T05:58:10.203Z,13.90
2023-03-13T06:00:36.606Z,12.75
2023-03-13T06:03:03.108Z,12.77
2023-03-13T06:05:29.547Z,11.48
2023-03-13T06:07:55.910Z,11.02
2023-03-13T06:10:22.319Z,13.35
2023-03-13T06:12:54.528Z,9.90
2023-03-13T06:15:21.238Z,12.18
2023-03-13T06:17:48.016Z,10.95
2023-03-13T06:20:15.279Z,13.25
2023-03-13T06:22:42.176Z,9.73
2023-03-13T06:25:09.587Z,12.18
2023-03-13T06:27:36.233Z,10.07
2023-03-13T06:30:03.263Z,8.50
2023-03-13T06:32:29.843Z,8.60
2023-03-13T06:34:56.355Z,10.75
2023-03-13T06:37:22.790Z,9.25
2023-03-13T06:39:49.143Z,11.07
2023-03-13T06:42:15.586Z,10.20
2023-03-13T06:44:41.957Z,9.82
2023-03-13T06:47:08.518Z,8.68
2023-03-13T06:49:35.732Z,10.77
2023-03-13T06:52:02.135Z,11.23
2023-03-13T06:54:28.515Z,9.50
2023-03-13T06:56:54.853Z,10.98
2023-03-13T06:59:21.271Z,10.38
2023-03-13T07:01:47.568Z,10.27
2023-03-13T07:04:14.415Z,9.98
2023-03-13T07:06:40.852Z,10.48
2023-03-13T07:09:07.290Z,8.23
2023-03-13T07:11:33.717Z,8.63
2023-03-13T07:14:13.670Z,9.88
2023-03-13T07:16:42.904Z,10.23
2023-03-13T07:19:09.259Z,12.73
2023-03-13T07:21:35.562Z,8.40
2023-03-13T07:24:01.931Z,10.20
2023-03-13T07:26:28.307Z,8.30
2023-03-13T07:28:55.985Z,9.10
2023-03-13T07:31:22.353Z,11.73
2023-03-13T07:33:48.740Z,11.52
2023-03-13T07:36:15.983Z,10.52
2023-03-13T07:38:42.574Z,9.50
2023-03-13T07:41:11.951Z,12.73
2023-03-13T07:43:38.334Z,9.00
2023-03-13T07:46:06.975Z,11.63
2023-03-13T07:48:38.471Z,10.30
2023-03-13T07:51:07.843Z,8.65
2023-03-13T07:53:34.898Z,10.25
2023-03-13T07:56:10.742Z,9.30
2023-03-13T07:58:39.497Z,8.52
2023-03-13T08:01:15.495Z,10.10
2023-03-13T08:03:42.504Z,8.73
2023-03-13T08:06:11.485Z,9.20
2023-03-13T08:08:38.734Z,10.35
2023-03-13T08:11:11.930Z,8.88
2023-03-13T08:13:38.903Z,11.38
2023-03-13T08:16:11.613Z,9.23
2023-03-13T08:18:40.481Z,10.75
2023-03-13T08:21:09.239Z,9.88
2023-03-13T08:23:36.112Z,11.48
2023-03-13T08:26:05.162Z,9.35
2023-03-13T08:28:31.541Z,9.90
2023-03-13T08:30:57.915Z,10.18
2023-03-13T08:33:24.478Z,8.13
2023-03-13T08:35:50.850Z,7.43
2023-03-13T08:38:17.255Z,9.80
2023-03-13T08:40:43.564Z,8.60
2023-03-13T08:43:09.889Z,7.95
2023-03-13T08:45:36.246Z,9.02
2023-03-13T08:48:02.592Z,7.93
2023-03-13T08:50:28.931Z,8.57
2023-03-13T08:52:55.303Z,7.07
2023-03-13T08:55:21.660Z,9.25
2023-03-13T08:57:48.026Z,8.63
2023-03-13T09:00:14.912Z,8.00
2023-03-13T09:02:41.324Z,11.30
2023-03-13T09:05:08.098Z,10.30
2023-03-13T09:07:34.396Z,8.27
2023-03-13T09:10:00.746Z,8.90
2023-03-13T09:12:31.131Z,8.50
2023-03-13T09:14:57.928Z,6.90
2023-03-13T09:17:24.338Z,8.48
2023-03-13T09:19:59.737Z,12.07
2023-03-13T09:22:27.183Z,6.88
2023-03-13T09:24:53.570Z,8.35
2023-03-13T09:27:19.940Z,8.93
2023-03-13T09:29:46.276Z,7.95
2023-03-13T09:32:12.606Z,8.75
2023-03-13T09:34:38.979Z,8.52
2023-03-13T09:37:05.350Z,8.55
2023-03-13T09:39:31.707Z,9.13
2023-03-13T09:42:22.919Z,4.88
2023-03-13T09:45:06.010Z,7.40
2023-03-13T09:47:58.741Z,7.45
2023-03-13T09:50:35.150Z,7.57
2023-03-13T09:53:14.519Z,6.20
2023-03-13T09:55:44.578Z,5.15
2023-03-13T09:58:21.821Z,6.05
2023-03-13T10:00:54.302Z,6.05
2023-03-13T10:03:42.336Z,5.93
2023-03-13T10:06:19.650Z,4.55
2023-03-13T10:08:46.088Z,4.00
2023-03-13T10:11:20.597Z,5.03
2023-03-13T10:14:20.820Z,6.68
2023-03-13T10:16:54.890Z,7.50
2023-03-13T10:19:31.206Z,4.97
2023-03-13T10:22:01.438Z,5.10
2023-03-13T10:24:42.276Z,5.55
2023-03-13T10:27:09.379Z,6.65
2023-03-13T10:29:35.696Z,4.93
2023-03-13T10:32:07.773Z,3.63
2023-03-13T10:34:57.335Z,6.65
2023-03-13T10:37:29.479Z,5.47
2023-03-13T10:40:13.149Z,7.25
2023-03-13T10:42:46.132Z,6.55
2023-03-13T10:45:19.134Z,4.28
2023-03-13T10:47:46.105Z,3.88
2023-03-13T10:50:22.009Z,6.25
2023-03-13T10:52:49.957Z,3.95
2023-03-13T10:55:20.618Z,4.60
2023-03-13T10:57:59.040Z,4.10
2023-03-13T11:00:32.919Z,5.65
2023-03-13T11:02:59.783Z,4.75
2023-03-13T11:05:29.900Z,5.15
2023-03-13T11:07:56.407Z,4.40
2023-03-13T11:10:28.093Z,4.32
2023-03-13T11:12:56.817Z,6.28
2023-03-13T11:15:47.372Z,4.10
2023-03-13T11:18:20.585Z,9.65
2023-03-13T11:20:47.175Z,4.95
2023-03-13T11:23:29.854Z,4.82
2023-03-13T11:26:21.028Z,5.10
2023-03-13T11:29:18.056Z,5.53
2023-03-13T11:31:55.986Z,5.13
2023-03-13T11:37:01.449Z,4.43
2023-03-13T11:39:37.346Z,6.30
2023-03-13T11:42:18.574Z,2.75
2023-03-13T11:45:08.184Z,4.20
2023-03-13T11:48:04.915Z,5.00
2023-03-13T11:50:35.676Z,6.65
2023-03-13T11:53:08.157Z,3.85
2023-03-13T11:55:59.819Z,2.65
2023-03-13T11:58:38.226Z,4.75
2023-03-13T12:01:16.238Z,4.00
2023-03-13T12:04:03.855Z,4.13
2023-03-13T12:06:33.852Z,4.82
2023-03-13T12:09:03.017Z,4.05
2023-03-13T12:11:36.473Z,6.28
2023-03-13T12:14:09.671Z,4.40
2023-03-13T12:16:45.869Z,6.13
2023-03-13T12:19:17.730Z,7.95
2023-03-13T12:21:52.217Z,3.40
2023-03-13T12:24:46.733Z,6.72
2023-03-13T12:27:30.357Z,6.10
2023-03-13T12:30:05.218Z,5.22
2023-03-13T12:32:39.761Z,5.30
2023-03-13T12:35:28.692Z,4.35
2023-03-13T12:38:04.842Z,5.85
2023-03-13T12:40:39.911Z,4.15
2023-03-13T12:43:19.460Z,4.63
2023-03-13T12:45:52.649Z,4.85
2023-03-13T12:48:48.982Z,4.65
2023-03-13T12:51:40.964Z,5.18
2023-03-13T12:54:33.242Z,5.85
2023-03-13T12:57:43.111Z,5.53
2023-03-13T13:00:22.997Z,5.03
2023-03-13T13:03:25.851Z,6.13
2023-03-13T13:06:11.200Z,7.30
2023-03-13T13:08:40.788Z,7.65
2023-03-13T13:11:40.679Z,5.38
2023-03-13T13:14:15.910Z,4.75
2023-03-13T13:16:51.757Z,5.07
2023-03-13T13:19:41.152Z,6.00
2023-03-13T13:22:35.370Z,5.70
2023-03-13T13:25:22.157Z,8.05
2023-03-13T13:27:49.177Z,7.47
2023-03-13T13:30:18.544Z,9.43
2023-03-13T13:32:50.147Z,9.52
2023-03-13T13:35:22.308Z,7.43
2023-03-13T13:37:49.697Z,6.10
2023-03-13T13:40:16.195Z,8.93
2023-03-13T13:42:51.773Z,6.07
2023-03-13T13:45:18.058Z,5.20
2023-03-13T13:47:49.460Z,7.10
2023-03-13T13:50:27.786Z,6.95
2023-03-13T13:53:30.957Z,5.13
2023-03-13T13:55:57.320Z,6.18
2023-03-13T13:58:28.222Z,6.50
2023-03-13T14:00:59.945Z,6.40
2023-03-13T14:03:29.050Z,3.90
2023-03-13T14:06:01.948Z,4.88
2023-03-13T14:08:33.645Z,4.57
2023-03-13T14:11:22.632Z,3.90
2023-03-13T14:14:11.234Z,4.40
2023-03-13T14:16:38.857Z,5.47
2023-03-13T14:19:05.290Z,5.65
2023-03-13T14:21:32.682Z,6.30
2023-03-13T14:23:59.028Z,8.68
2023-03-13T14:26:27.875Z,7.95
2023-03-13T14:28:55.855Z,10.02
2023-03-13T14:31:31.451Z,6.28
2023-03-13T14:33:59.949Z,7.78
2023-03-13T14:36:27.198Z,7.28
2023-03-13T14:38:55.859Z,7.53
2023-03-13T14:41:41.529Z,8.32
2023-03-13T14:44:25.719Z,7.82
2023-03-13T14:46:58.329Z,9.68
2023-03-13T14:49:27.538Z,10.02
2023-03-13T14:52:03.986Z,7.10
2023-03-13T14:54:33.914Z,11.88
2023-03-13T14:57:13.301Z,9.77
2023-03-13T14:59:39.739Z,11.00
2023-03-13T15:02:28.978Z,12.02
2023-03-13T15:04:56.496Z,11.25
2023-03-13T15:07:23.531Z,11.73
2023-03-13T15:09:50.416Z,9.02
2023-03-13T15:12:22.531Z,11.88
2023-03-13T15:14:51.216Z,10.40
2023-03-13T15:17:26.040Z,8.77
2023-03-13T15:19:55.201Z,11.32
2023-03-13T15:22:27.983Z,10.10
2023-03-13T15:25:05.574Z,7.78
2023-03-13T15:27:32.798Z,8.75
2023-03-13T15:29:59.171Z,10.93
2023-03-13T15:32:29.060Z,7.93
2023-03-13T15:34:56.436Z,10.43
2023-03-13T15:37:22.822Z,6.82
2023-03-13T15:39:49.178Z,17.17
2023-03-13T15:42:15.529Z,6.43
2023-03-13T15:44:41.967Z,8.23
2023-03-13T15:47:17.375Z,10.23
2023-03-13T15:49:44.118Z,8.38
2023-03-13T15:52:19.298Z,9.82
2023-03-13T15:54:46.390Z,7.35
2023-03-13T15:57:15.508Z,9.70
2023-03-13T15:59:41.924Z,10.50
2023-03-13T16:02:17.559Z,10.68
2023-03-13T16:04:45.095Z,9.65
2023-03-13T16:07:13.608Z,12.57
2023-03-13T16:09:41.648Z,9.48
2023-03-13T16:12:08.561Z,10.15
2023-03-13T16:14:35.924Z,8.38
2023-03-13T16:17:03.899Z,10.52
2023-03-13T16:19:30.555Z,9.35
2023-03-13T16:21:56.898Z,12.02
2023-03-13T16:24:23.257Z,10.25
2023-03-13T16:26:49.662Z,10.15
2023-03-13T16:29:16.463Z,10.90
2023-03-13T16:31:42.990Z,10.45
2023-03-13T16:34:09.325Z,11.88
2023-03-13T16:36:36.429Z,10.35
2023-03-13T16:39:07.483Z,8.15
2023-03-13T16:41:33.844Z,11.40
2023-03-13T16:44:00.266Z,11.13
2023-03-13T16:46:35.313Z,8.65
2023-03-13T16:49:01.963Z,10.18
2023-03-13T16:51:28.999Z,11.98
2023-03-13T16:53:57.341Z,10.93
2023-03-13T16:56:28.761Z,16.75
2023-03-13T16:58:55.672Z,10.80
2023-03-13T17:01:23.594Z,9.38
2023-03-13T17:03:49.982Z,7.22
2023-03-13T17:06:20.594Z,11.85
2023-03-13T17:08:47.593Z,11.05
2023-03-13T17:11:17.945Z,10.32
2023-03-13T17:13:46.375Z,13.52
2023-03-13T17:16:15.474Z,12.18
2023-03-13T17:18:43.464Z,10.82
2023-03-13T17:21:12.414Z,11.57
2023-03-13T17:23:38.834Z,11.20
2023-03-13T17:26:14.758Z,10.63
2023-03-13T17:28:41.835Z,12.90
2023-03-13T17:31:10.230Z,13.13
2023-03-13T17:33:36.889Z,12.98
2023-03-13T17:36:19.940Z,12.00
2023-03-13T17:38:47.912Z,13.43
2023-03-13T17:41:16.851Z,12.98
2023-03-13T17:43:43.330Z,12.65
2023-03-13T17:46:43.069Z,12.27
2023-03-13T17:49:12.815Z,12.90
2023-03-13T17:51:39.172Z,14.98
2023-03-13T17:54:05.566Z,12.93
2023-03-13T17:56:34.407Z,13.45
2023-03-13T17:59:00.922Z,16.65
2023-03-13T18:01:30.088Z,13.15
2023-03-13T18:03:57.190Z,13.52
2023-03-13T18:06:32.223Z,17.05
2023-03-13T18:09:01.090Z,13.02
2023-03-13T18:11:27.557Z,18.42
2023-03-13T18:13:54.700Z,13.77
2023-03-13T18:16:45.382Z,16.58
2023-03-13T18:19:26.166Z,17.80
2023-03-13T18:21:54.646Z,15.82
2023-03-13T18:24:21.631Z,15.73
2023-03-13T18:26:49.364Z,14.13
2023-03-13T18:29:21.630Z,15.50
2023-03-13T18:31:48.087Z,14.10
2023-03-13T18:34:14.480Z,13.55
2023-03-13T18:36:40.932Z,18.42
2023-03-13T18:39:07.298Z,15.80
2023-03-13T18:41:34.428Z,18.88
2023-03-13T18:44:00.779Z,17.92
2023-03-13T18:46:29.769Z,15.15
2023-03-13T18:48:57.039Z,14.98
2023-03-13T18:51:25.211Z,17.00
2023-03-13T18:53:52.673Z,14.07
2023-03-13T18:56:24.967Z,14.35
2023-03-13T18:58:53.485Z,21.63
2023-03-13T19:01:22.859Z,13.77
2023-03-13T19:03:49.800Z,19.73
2023-03-13T19:06:28.515Z,16.15
2023-03-13T19:09:01.038Z,15.35
2023-03-13T19:11:31.137Z,15.60
2023-03-13T19:13:58.165Z,18.00
2023-03-13T19:16:30.800Z,14.13
2023-03-13T19:18:58.344Z,17.20
2023-03-13T19:21:27.009Z,14.90
2023-03-13T19:23:54.173Z,17.67
2023-03-13T19:26:26.341Z,16.65
2023-03-13T19:31:19.072Z,19.77
2023-03-13T19:33:45.756Z,22.98
2023-03-13T19:36:14.834Z,14.45
2023-03-13T19:38:41.718Z,17.52
2023-03-13T19:41:09.438Z,19.58
2023-03-13T19:43:36.745Z,15.13
2023-03-13T19:46:21.773Z,16.75
2023-03-13T19:48:49.412Z,14.88
2023-03-13T19:51:15.765Z,18.40
2023-03-13T19:53:42.462Z,15.25
2023-03-13T19:56:16.909Z,17.42
2023-03-13T19:58:47.819Z,17.17
2023-03-13T20:01:17.488Z,18.52
2023-03-13T20:03:45.452Z,15.55
2023-03-13T20:06:24.811Z,18.00
2023-03-13T20:08:56.261Z,16.30
2023-03-13T20:11:23.166Z,18.13
2023-03-13T20:13:49.631Z,13.07
2023-03-13T20:16:16.489Z,16.40
2023-03-13T20:18:43.242Z,18.52
2023-03-13T20:21:10.492Z,15.57
2023-03-13T20:23:36.867Z,15.80
2023-03-13T20:26:08.464Z,16.08
2023-03-13T20:28:36.032Z,15.98
2023-03-13T20:31:02.766Z,20.30
2023-03-13T20:33:29.869Z,15.18
2023-03-13T20:35:58.721Z,19.25
2023-03-13T20:38:25.104Z,16.17
2023-03-13T20:40:53.468Z,19.33
2023-03-13T20:43:19.922Z,20.65
2023-03-13T20:45:46.342Z,19.88
2023-03-13T20:48:12.794Z,15.88
2023-03-13T20:50:39.147Z,22.95
2023-03-13T20:53:05.479Z,14.35
2023-03-13T20:55:31.895Z,20.23
2023-03-13T20:57:58.794Z,19.63
2023-03-13T21:00:25.779Z,17.25
2023-03-13T21:02:52.260Z,16.30
2023-03-13T21:05:18.616Z,14.68
2023-03-13T21:07:44.963Z,20.00
2023-03-13T21:10:11.901Z,23.15
2023-03-13T21:12:38.285Z,14.80
2023-03-13T21:15:06.250Z,18.05
2023-03-13T21:17:32.860Z,22.25
2023-03-13T21:19:59.217Z,18.23
2023-03-13T21:22:26.605Z,21.23
2023-03-13T21:24:53.030Z,18.02
2023-03-13T21:27:19.428Z,13.15
2023-03-13T21:29:45.959Z,12.52
2023-03-13T21:32:13.074Z,14.88
2023-03-13T21:34:39.421Z,17.25
2023-03-13T21:37:05.808Z,16.45
2023-03-13T21:39:32.202Z,13.68
2023-03-13T21:41:58.563Z,15.02
2023-03-13T21:44:27.062Z,15.18
2023-03-13T21:46:53.808Z,14.00
2023-03-13T21:49:20.324Z,16.98
2023-03-13T21:51:46.698Z,21.70
2023-03-13T21:54:13.082Z,16.05
2023-03-13T21:56:39.402Z,16.33
2023-03-13T21:59:05.840Z,14.88
2023-03-13T22:01:32.209Z,13.57
2023-03-13T22:03:58.708Z,12.13
2023-03-13T22:06:25.140Z,16.90
2023-03-13T22:08:51.575Z,15.40
2023-03-13T22:11:18.448Z,12.18
2023-03-13T22:13:44.825Z,13.32
2023-03-13T22:16:11.772Z,13.13
2023-03-13T22:18:38.568Z,12.93
2023-03-13T22:21:05.421Z,13.00
2023-03-13T22:23:32.147Z,14.77
2023-03-13T22:25:59.434Z,17.20
2023-03-13T22:28:26.528Z,14.13
2023-03-13T22:30:52.902Z,15.18
2023-03-13T22:33:19.713Z,10.70
2023-03-13T22:35:50.643Z,14.30
2023-03-13T22:38:17.037Z,15.07
2023-03-13T22:40:43.393Z,10.40
2023-03-13T22:43:09.762Z,13.20
2023-03-13T22:45:36.074Z,12.60
2023-03-13T22:48:02.641Z,17.65
2023-03-13T22:50:29.051Z,12.25
2023-03-13T22:52:55.414Z,15.13
2023-03-13T22:55:21.742Z,10.95
2023-03-13T22:57:48.120Z,11.50
2023-03-13T23:00:15.093Z,12.30
2023-03-13T23:02:41.439Z,19.63
2023-03-13T23:05:08.241Z,17.05
2023-03-13T23:07:34.649Z,14.65
2023-03-13T23:10:01.052Z,12.30
2023-03-13T23:12:27.476Z,13.27
2023-03-13T23:14:53.922Z,14.20
2023-03-13T23:17:20.452Z,15.95
2023-03-13T23:19:47.024Z,14.35
2023-03-13T23:22:13.370Z,12.65
2023-03-13T23:24:39.739Z,12.82
2023-03-13T23:27:06.127Z,17.42
2023-03-13T23:29:32.502Z,17.42
2023-03-13T23:31:58.910Z,12.65
2023-03-13T23:34:25.305Z,12.10
2023-03-13T23:36:51.693Z,13.20
2023-03-13T23:39:18.207Z,13.38
2023-03-13T23:41:44.596Z,10.60
2023-03-13T23:44:10.969Z,12.57
2023-03-13T23:46:37.377Z,9.90
2023-03-13T23:49:03.723Z,12.88
2023-03-13T23:51:30.109Z,9.27
2023-03-13T23:53:56.540Z,8.68
2023-03-13T23:56:23.085Z,7.50
2023-03-13T23:58:49.501Z,10.27
